Time;durP1;ratioP1;P1;durP2;ratioP2;P2;SDS_P1;SDS_P2;PMS_P1;PMS_P2;Temp;Humidity;BMP_temperature;BMP_pressure;BME280_temperature;BME280_humidity;BME280_pressure;Samples;Min_cycle;Max_cycle;Signal;HPM_P1;HPM_P2
2022/08/13 00:00:10;;;;;;;5.35;2.63;;;;;;;22.33;43.11;101343.59;3587469;39;20333;-63
2022/08/13 00:02:43;;;;;;;4.78;2.88;;;;;;;22.35;43.32;101349.75;3586941;40;20060;-64
2022/08/13 00:05:10;;;;;;;4.07;3.00;;;;;;;22.30;42.89;101360.34;3586867;40;20064;-64
2022/08/13 00:07:38;;;;;;;3.40;3.08;;;;;;;22.24;42.60;101358.25;3586306;40;20044;-64
2022/08/13 00:10:10;;;;;;;6.75;2.78;;;;;;;22.21;42.60;101361.31;3588496;40;20084;-63
2022/08/13 00:12:56;;;;;;;7.53;3.67;;;;;;;22.13;42.20;101361.19;3585010;40;20056;-63
2022/08/13 00:15:33;;;;;;;4.57;2.70;;;;;;;22.03;42.32;101356.66;3585249;40;20052;-63
2022/08/13 00:18:15;;;;;;;5.22;2.97;;;;;;;21.98;42.79;101359.00;3587993;40;20048;-64
2022/08/13 00:20:49;;;;;;;3.70;2.72;;;;;;;21.93;42.33;101358.59;3587530;39;20056;-64
2022/08/13 00:23:18;;;;;;;4.18;2.70;;;;;;;21.89;42.52;101359.09;3585858;39;20076;-63
2022/08/13 00:25:50;;;;;;;8.27;2.60;;;;;;;21.86;42.41;101356.66;3586200;40;20130;-64
2022/08/13 00:28:21;;;;;;;4.15;2.72;;;;;;;21.74;42.80;101350.53;3586627;39;20100;-64
2022/08/13 00:30:47;;;;;;;4.22;2.60;;;;;;;21.74;42.16;101361.50;3591555;39;20051;-63
2022/08/13 00:33:19;;;;;;;3.03;2.70;;;;;;;21.70;43.03;101354.63;3587420;40;20056;-65
2022/08/13 00:35:47;;;;;;;3.10;2.80;;;;;;;21.68;44.53;101362.97;3587879;40;20087;-63
2022/08/13 00:38:22;;;;;;;6.90;2.83;;;;;;;21.67;43.61;101357.66;3585624;39;20337;-64
2022/08/13 00:40:57;;;;;;;4.63;2.90;;;;;;;21.64;43.22;101366.16;3587874;40;20044;-63
2022/08/13 00:43:27;;;;;;;4.13;2.65;;;;;;;21.59;44.69;101357.56;3587292;40;20414;-64
2022/08/13 00:45:54;;;;;;;4.28;3.05;;;;;;;21.52;44.61;101366.38;3588161;40;20092;-63
2022/08/13 00:51:08;;;;;;;5.00;2.92;;;;;;;21.44;45.83;101366.28;3585710;40;20117;-63
2022/08/13 00:53:38;;;;;;;3.20;2.90;;;;;;;21.40;45.55;101364.84;3585717;40;20040;-64
2022/08/13 00:56:08;;;;;;;3.17;2.60;;;;;;;21.37;45.91;101367.88;3586463;40;20083;-63
2022/08/13 00:58:35;;;;;;;4.80;2.78;;;;;;;21.33;46.06;101370.03;3586482;40;20047;-64
2022/08/13 01:01:04;;;;;;;5.93;3.38;;;;;;;21.31;45.68;101363.00;3588945;40;20050;-63
2022/08/13 01:03:34;;;;;;;4.90;3.10;;;;;;;21.30;45.43;101369.50;3584989;40;20056;-63
2022/08/13 01:06:04;;;;;;;5.78;3.50;;;;;;;21.27;46.24;101375.25;3587448;40;20527;-64
2022/08/13 01:08:34;;;;;;;7.40;3.00;;;;;;;20.67;47.02;101285.44;3586308;40;20059;-63
2022/08/13 01:11:08;;;;;;;3.58;3.22;;;;;;;21.21;45.86;101367.66;3587250;40;20467;-63
2022/08/13 01:13:37;;;;;;;6.10;3.05;;;;;;;21.17;46.98;101364.38;3586438;40;20053;-63
2022/08/13 01:16:07;;;;;;;3.42;3.10;;;;;;;21.14;47.75;101364.66;3587453;40;20164;-63
2022/08/13 01:18:36;;;;;;;4.60;3.20;;;;;;;21.10;46.70;101363.25;3587461;40;20142;-63
2022/08/13 01:21:15;;;;;;;3.97;3.40;;;;;;;21.08;46.02;101360.66;3583573;40;20379;-63
2022/08/13 01:23:46;;;;;;;4.53;3.17;;;;;;;20.91;46.75;101342.31;3586439;40;20048;-63
2022/08/13 01:26:19;;;;;;;5.07;3.53;;;;;;;21.05;47.94;101369.16;3586390;39;20047;-63
2022/08/13 01:28:50;;;;;;;5.95;3.25;;;;;;;21.00;46.02;101365.16;3586176;40;20056;-63
2022/08/13 01:31:19;;;;;;;8.27;2.95;;;;;;;20.96;47.11;101367.31;3586259;39;20055;-64
2022/08/13 01:33:59;;;;;;;3.75;3.05;;;;;;;20.93;46.78;101372.22;3586895;40;20080;-63
2022/08/13 01:36:27;;;;;;;3.80;2.63;;;;;;;20.86;46.15;101377.44;3585357;40;20060;-63
2022/08/13 01:38:53;;;;;;;6.40;3.28;;;;;;;20.85;46.61;101375.72;3585341;40;20048;-63
2022/08/13 01:41:19;;;;;;;4.32;3.10;;;;;;;20.84;47.51;101377.59;3585934;40;20536;-64
2022/08/13 01:43:46;;;;;;;4.45;2.80;;;;;;;20.84;47.28;101374.84;3586251;40;20040;-63
2022/08/13 01:46:12;;;;;;;6.47;3.10;;;;;;;20.79;46.28;101370.84;3584368;40;20055;-63
2022/08/13 01:51:35;;;;;;;3.20;2.90;;;;;;;20.74;46.77;101367.66;3588604;40;20078;-64
2022/08/13 01:54:02;;;;;;;7.75;3.30;;;;;;;20.70;47.88;101369.84;3590586;40;20383;-63
2022/08/13 01:56:31;;;;;;;6.25;2.90;;;;;;;20.68;47.05;101373.72;3586959;39;20088;-63
2022/08/13 01:59:02;;;;;;;6.05;3.13;;;;;;;20.66;47.55;101368.44;3590445;40;20153;-63
2022/08/13 02:01:31;;;;;;;5.43;3.53;;;;;;;20.61;47.07;101362.53;3587400;39;20048;-63
2022/08/13 02:03:58;;;;;;;4.43;2.88;;;;;;;20.56;47.33;101360.25;3588376;40;20048;-64
2022/08/13 02:06:28;;;;;;;3.67;2.97;;;;;;;20.51;47.04;101359.81;3586280;39;20369;-63
2022/08/13 02:09:00;;;;;;;6.18;2.90;;;;;;;20.37;48.30;101335.69;3585478;40;20052;-63
2022/08/13 02:11:32;;;;;;;5.45;3.22;;;;;;;20.46;47.61;101358.53;3590255;39;20055;-63
2022/08/13 02:14:02;;;;;;;3.35;2.90;;;;;;;20.43;48.26;101359.66;3587590;39;20117;-63
2022/08/13 02:16:30;;;;;;;4.05;2.60;;;;;;;20.29;48.56;101341.00;3586097;40;20062;-63
2022/08/13 02:18:56;;;;;;;5.13;3.10;;;;;;;20.39;49.25;101359.09;3585142;40;20048;-63
2022/08/13 02:21:25;;;;;;;4.32;2.95;;;;;;;20.37;48.99;101354.78;3585467;40;20215;-63
2022/08/13 02:23:56;;;;;;;4.32;3.20;;;;;;;20.33;48.35;101359.69;3589777;40;20349;-64
2022/08/13 02:26:23;;;;;;;3.15;2.83;;;;;;;20.21;49.30;101346.34;3585873;39;20051;-64
2022/08/13 02:28:51;;;;;;;4.32;2.83;;;;;;;20.25;49.07;101361.41;3586878;40;20556;-64
2022/08/13 02:31:18;;;;;;;3.25;3.00;;;;;;;20.04;48.84;101326.91;3585356;40;20049;-64
2022/08/13 02:33:44;;;;;;;4.03;2.88;;;;;;;20.14;48.61;101354.25;3588997;40;20056;-64
2022/08/13 02:36:10;;;;;;;7.18;3.30;;;;;;;20.11;49.25;101366.31;3588053;40;20398;-64
2022/08/13 02:38:42;;;;;;;3.40;2.97;;;;;;;20.09;49.18;101362.84;3586147;39;20060;-64
2022/08/13 02:43:54;;;;;;;4.65;3.13;;;;;;;20.03;50.36;101351.66;3583632;40;20365;-64
2022/08/13 02:46:21;;;;;;;3.97;3.35;;;;;;;20.01;50.53;101349.03;3585091;40;20048;-64
2022/08/13 02:48:49;;;;;;;4.82;2.85;;;;;;;19.98;49.53;101363.00;3584176;40;20040;-64
2022/08/13 02:51:15;;;;;;;6.25;3.47;;;;;;;19.94;50.81;101364.28;3589703;39;20120;-63
2022/08/13 02:53:42;;;;;;;6.10;3.10;;;;;;;19.93;50.79;101359.84;3588294;40;20056;-64
2022/08/13 02:56:08;;;;;;;4.00;3.40;;;;;;;19.90;49.79;101363.69;3590036;39;20052;-64
2022/08/13 02:58:41;;;;;;;3.85;3.08;;;;;;;19.86;49.29;101356.81;3587826;39;20068;-64
2022/08/13 03:01:10;;;;;;;4.30;3.28;;;;;;;19.71;49.84;101350.91;3589792;39;20050;-64
2022/08/13 03:03:36;;;;;;;5.80;3.50;;;;;;;19.76;49.94;101355.94;3584068;39;20060;-64
2022/08/13 03:06:02;;;;;;;6.32;3.30;;;;;;;19.74;49.71;101355.22;3586860;40;20058;-64
2022/08/13 03:08:29;;;;;;;4.80;3.17;;;;;;;19.73;50.05;101366.25;3588013;40;20055;-63
2022/08/13 03:10:56;;;;;;;4.63;3.17;;;;;;;19.69;50.40;101355.66;3587760;40;20060;-63
2022/08/13 03:13:32;;;;;;;4.05;3.22;;;;;;;19.68;50.62;101355.78;3583193;40;20295;-63
2022/08/13 03:16:03;;;;;;;3.72;3.40;;;;;;;19.52;49.93;101339.91;3589269;40;20060;-63
2022/08/13 03:18:30;;;;;;;6.88;3.45;;;;;;;19.61;49.91;101351.88;3586358;40;20048;-63
2022/08/13 03:20:55;;;;;;;5.47;3.33;;;;;;;19.58;50.63;101363.91;3582939;40;20386;-63
2022/08/13 03:23:24;;;;;;;3.95;3.17;;;;;;;19.55;50.12;101361.47;3587968;40;20129;-63
2022/08/13 03:25:50;;;;;;;5.03;3.25;;;;;;;19.53;50.06;101365.31;3583104;40;20486;-63
2022/08/13 03:28:16;;;;;;;3.63;3.13;;;;;;;19.44;50.61;101356.09;3585207;40;20129;-63
2022/08/13 03:30:43;;;;;;;7.72;3.40;;;;;;;19.47;50.43;101362.19;3585689;40;20064;-63
2022/08/13 03:33:14;;;;;;;4.10;3.30;;;;;;;19.46;50.45;101360.44;3585692;40;20047;-63
2022/08/13 03:35:40;;;;;;;3.47;3.17;;;;;;;19.43;50.64;101363.44;3587030;39;20056;-63
2022/08/13 03:38:11;;;;;;;4.05;3.45;;;;;;;19.39;50.98;101359.28;3584497;39;20049;-63
2022/08/13 03:43:23;;;;;;;6.80;5.78;;;;;;;19.29;50.30;101363.84;3585151;40;20408;-63
2022/08/13 03:45:50;;;;;;;6.22;4.20;;;;;;;19.22;50.55;101368.13;3585917;40;20052;-63
2022/08/13 03:48:17;;;;;;;7.30;4.35;;;;;;;18.90;50.54;101311.03;3589368;40;20313;-64
2022/08/13 03:50:46;;;;;;;7.43;4.60;;;;;;;19.17;50.72;101360.34;3587840;40;20056;-63
2022/08/13 03:53:13;;;;;;;9.25;3.97;;;;;;;19.14;51.91;101355.16;3588013;39;20049;-63
2022/08/13 03:55:39;;;;;;;6.90;4.05;;;;;;;19.14;51.22;101352.44;3588050;40;20060;-63
2022/08/13 03:58:08;;;;;;;6.20;4.13;;;;;;;19.13;51.53;101353.44;3590407;39;20306;-63
2022/08/13 04:00:42;;;;;;;8.13;3.80;;;;;;;19.11;51.40;101355.44;3589697;39;20062;-63
2022/08/13 04:03:28;;;;;;;7.88;4.20;;;;;;;19.10;52.16;101359.16;3587164;40;20051;-63
2022/08/13 04:06:02;;;;;;;6.05;3.58;;;;;;;19.06;51.39;101355.00;3590437;40;20044;-63
2022/08/13 04:08:35;;;;;;;4.78;4.28;;;;;;;19.04;51.45;101356.13;3584427;40;20048;-63
2022/08/13 04:11:05;;;;;;;6.82;4.57;;;;;;;18.99;51.31;101356.53;3586081;40;20060;-63
2022/08/13 04:13:36;;;;;;;8.13;4.50;;;;;;;18.71;51.92;101309.03;3586560;40;20430;-63
2022/08/13 04:16:21;;;;;;;6.03;4.18;;;;;;;18.96;52.34;101354.06;3591878;40;20048;-63
2022/08/13 04:18:50;;;;;;;5.65;3.53;;;;;;;18.94;51.28;101353.38;3587545;40;20058;-63
2022/08/13 04:21:19;;;;;;;7.40;3.85;;;;;;;18.78;52.09;101332.94;3590289;39;20048;-63
2022/08/13 04:23:46;;;;;;;6.07;3.50;;;;;;;18.89;51.49;101363.81;3589374;40;20056;-63
2022/08/13 04:26:15;;;;;;;4.32;3.67;;;;;;;18.90;52.72;101362.78;3590637;40;20048;-63
2022/08/13 04:28:44;;;;;;;5.82;3.60;;;;;;;18.85;52.06;101365.06;3588223;40;20056;-63
2022/08/13 04:31:11;;;;;;;5.43;3.83;;;;;;;18.81;51.75;101369.94;3586962;40;20044;-63
2022/08/13 04:33:39;;;;;;;7.80;4.82;;;;;;;18.68;51.88;101353.78;3587728;40;20047;-63
2022/08/13 04:36:07;;;;;;;6.05;3.90;;;;;;;18.72;53.21;101360.72;3584938;40;20341;-63
2022/08/13 04:38:34;;;;;;;6.30;4.10;;;;;;;18.73;53.04;101367.00;3586507;40;20317;-63
2022/08/13 04:41:01;;;;;;;4.68;3.63;;;;;;;18.73;52.13;101372.47;3589149;40;20055;-63
2022/08/13 04:43:28;;;;;;;6.82;3.55;;;;;;;18.72;52.02;101366.16;3589391;40;20113;-63
2022/08/13 04:46:00;;;;;;;3.85;3.53;;;;;;;18.73;52.59;101367.88;3587492;40;20083;-63
2022/08/13 04:48:33;;;;;;;5.05;3.30;;;;;;;18.62;52.44;101348.88;3584409;40;20149;-64
2022/08/13 04:51:00;;;;;;;4.35;3.42;;;;;;;18.70;52.97;101367.25;3590834;40;20059;-63
2022/08/13 04:53:30;;;;;;;5.15;3.65;;;;;;;18.70;53.07;101370.81;3587868;40;20364;-63
2022/08/13 04:55:58;;;;;;;6.32;3.80;;;;;;;18.69;52.94;101370.97;3587428;40;20056;-63
2022/08/13 04:58:32;;;;;;;4.35;3.20;;;;;;;18.67;53.90;101365.66;3586710;39;20052;-63
2022/08/13 05:00:59;;;;;;;3.80;3.50;;;;;;;18.66;53.17;101361.22;3588418;40;20052;-63
2022/08/13 05:03:25;;;;;;;4.47;3.70;;;;;;;18.67;53.69;101368.38;3587052;39;20048;-63
2022/08/13 05:05:52;;;;;;;5.35;3.45;;;;;;;18.43;53.83;101321.53;3584591;40;20048;-63
2022/08/13 05:08:19;;;;;;;6.60;3.30;;;;;;;18.59;53.96;101354.59;3589197;40;20144;-63
2022/08/13 05:10:48;;;;;;;4.70;3.85;;;;;;;18.73;53.23;101378.75;3590625;39;20055;-63
2022/08/13 05:13:33;;;;;;;8.30;3.83;;;;;;;18.78;53.57;101375.66;3588489;40;20048;-63
2022/08/13 05:16:04;;;;;;;4.53;3.35;;;;;;;18.83;53.76;101381.53;3588229;40;20064;-63
2022/08/13 05:18:33;;;;;;;4.53;3.58;;;;;;;18.86;53.25;101373.09;3589412;39;20040;-63
2022/08/13 05:21:04;;;;;;;9.60;4.00;;;;;;;18.90;53.77;101374.56;3588399;40;20071;-63
2022/08/13 05:23:35;;;;;;;5.35;3.65;;;;;;;18.94;53.34;101378.75;3584661;39;20134;-63
2022/08/13 05:26:01;;;;;;;7.43;3.70;;;;;;;18.97;53.80;101380.34;3584495;40;20066;-63
2022/08/13 05:28:28;;;;;;;4.53;3.70;;;;;;;19.01;52.67;101388.09;3586095;40;20054;-63
2022/08/13 05:30:54;;;;;;;4.95;3.90;;;;;;;19.04;53.48;101386.13;3584162;40;20040;-63
2022/08/13 05:33:28;;;;;;;8.60;3.63;;;;;;;19.04;53.17;101378.78;3585055;40;20132;-63
2022/08/13 05:36:00;;;;;;;8.57;3.58;;;;;;;19.15;53.90;101381.41;3587504;40;20476;-63
2022/08/13 05:38:28;;;;;;;6.00;3.65;;;;;;;19.18;53.09;101383.00;3586866;40;20368;-63
2022/08/13 05:41:00;;;;;;;5.47;3.38;;;;;;;19.22;53.68;101385.34;3588154;40;20127;-63
2022/08/13 05:43:30;;;;;;;7.53;3.95;;;;;;;19.28;53.59;101385.75;3589289;39;20064;-63
2022/08/13 05:45:59;;;;;;;5.82;3.97;;;;;;;19.34;53.67;101386.06;3588466;40;20082;-63
2022/08/13 05:48:35;;;;;;;5.85;3.42;;;;;;;19.40;52.98;101382.78;3587319;39;20122;-63
2022/08/13 05:51:05;;;;;;;5.45;3.70;;;;;;;19.44;52.32;101384.25;3590574;40;20065;-63
2022/08/13 05:53:32;;;;;;;4.72;4.03;;;;;;;19.55;52.31;101396.91;3588890;39;21653;-66
2022/08/13 05:55:58;;;;;;;6.35;3.75;;;;;;;19.61;51.87;101390.91;3588654;40;20387;-63
2022/08/13 05:58:24;;;;;;;9.45;3.97;;;;;;;19.69;51.52;101387.50;3588528;40;20048;-63
2022/08/13 06:03:37;;;;;;;5.72;3.70;;;;;;;19.86;50.68;101384.09;3588005;40;20077;-63
2022/08/13 06:06:08;;;;;;;6.35;3.83;;;;;;;19.94;51.32;101375.19;3586557;40;20052;-63
2022/08/13 06:08:39;;;;;;;4.75;4.07;;;;;;;20.03;49.46;101384.41;3590123;40;20071;-63
2022/08/13 06:11:14;;;;;;;8.02;3.85;;;;;;;20.13;51.13;101380.66;3585203;40;20058;-63
2022/08/13 06:13:40;;;;;;;5.60;3.70;;;;;;;20.13;50.55;101369.72;3588367;40;20051;-63
2022/08/13 06:16:10;;;;;;;8.13;3.83;;;;;;;20.28;50.24;101378.34;3584731;39;20048;-63
2022/08/13 06:18:40;;;;;;;7.05;4.10;;;;;;;20.35;50.06;101373.19;3584589;40;20104;-63
2022/08/13 06:21:11;;;;;;;8.05;3.83;;;;;;;20.47;49.39;101377.47;3587659;40;20068;-64
2022/08/13 06:23:38;;;;;;;10.20;4.20;;;;;;;20.55;49.85;101374.03;3587835;40;20079;-63
2022/08/13 06:26:09;;;;;;;4.53;3.75;;;;;;;20.66;48.90;101386.69;3584077;40;20048;-63
2022/08/13 06:28:36;;;;;;;9.95;3.70;;;;;;;20.81;49.40;101386.09;3583742;40;20164;-63
2022/08/13 06:31:16;;;;;;;5.75;3.28;;;;;;;20.98;48.66;101387.16;3587161;40;20064;-63
2022/08/13 06:33:44;;;;;;;7.85;3.90;;;;;;;21.11;48.13;101389.56;3587325;40;20134;-64
2022/08/13 06:36:16;;;;;;;7.50;3.70;;;;;;;21.32;47.58;101386.63;3583647;40;20122;-63
2022/08/13 06:38:50;;;;;;;5.88;4.05;;;;;;;21.52;46.50;101385.53;3588291;39;20055;-63
2022/08/13 06:41:19;;;;;;;15.27;4.15;;;;;;;21.71;46.51;101383.69;3587209;39;20053;-62
2022/08/13 06:43:52;;;;;;;6.40;3.58;;;;;;;21.95;45.92;101381.22;3588557;40;20052;-63
2022/08/13 06:46:31;;;;;;;7.10;3.70;;;;;;;22.13;44.19;101389.41;3586746;39;20122;-63
2022/08/13 06:49:02;;;;;;;9.45;3.80;;;;;;;22.39;44.14;101386.81;3587295;40;20390;-64
2022/08/13 06:51:28;;;;;;;6.15;3.20;;;;;;;22.61;42.55;101384.56;3592614;39;20076;-64
2022/08/13 06:53:55;;;;;;;5.10;3.33;;;;;;;22.85;43.39;101383.88;3591218;40;20052;-63
2022/08/13 06:56:26;;;;;;;4.60;2.95;;;;;;;23.12;42.82;101382.84;3586948;39;20048;-63
2022/08/13 06:58:58;;;;;;;6.13;3.55;;;;;;;23.37;42.47;101390.22;3584836;40;20049;-64
2022/08/13 07:01:27;;;;;;;8.93;5.95;;;;;;;23.62;41.79;101390.28;3588909;39;20052;-64
2022/08/13 07:03:56;;;;;;;9.45;5.05;;;;;;;23.81;40.10;101387.28;3589465;40;20055;-64
2022/08/13 07:06:28;;;;;;;5.78;3.40;;;;;;;23.98;39.59;101379.09;3586719;39;20326;-64
2022/08/13 07:08:59;;;;;;;6.40;3.10;;;;;;;24.20;39.71;101397.66;3589923;40;20047;-64
2022/08/13 07:11:30;;;;;;;4.72;3.40;;;;;;;24.38;39.83;101388.38;3587356;40;20329;-64
2022/08/13 07:14:01;;;;;;;4.80;2.95;;;;;;;24.48;39.03;101394.59;3587530;40;20048;-64
2022/08/13 07:16:32;;;;;;;5.80;3.30;;;;;;;24.63;38.72;101387.38;3588643;39;20048;-64
2022/08/13 07:19:00;;;;;;;3.55;3.00;;;;;;;24.73;38.55;101396.31;3586777;40;20044;-64
2022/08/13 07:21:28;;;;;;;6.00;4.75;;;;;;;24.88;38.52;101401.09;3587101;39;20375;-64
2022/08/13 07:23:55;;;;;;;5.50;4.00;;;;;;;24.97;39.15;101372.56;3583331;40;20053;-64
2022/08/13 07:26:29;;;;;;;7.40;4.50;;;;;;;25.34;38.57;101401.34;3588175;40;20400;-64
2022/08/13 07:28:54;;;;;;;5.57;3.03;;;;;;;25.53;37.53;101400.94;3586916;40;20301;-64
2022/08/13 07:31:30;;;;;;;6.88;2.70;;;;;;;25.67;37.34;101397.41;3585735;39;20052;-64
2022/08/13 07:34:04;;;;;;;3.75;2.72;;;;;;;25.66;36.33;101401.22;3589823;40;20297;-64
2022/08/13 07:36:35;;;;;;;3.80;2.40;;;;;;;25.87;37.62;101406.13;3585467;40;20189;-64
2022/08/13 07:39:11;;;;;;;5.60;2.58;;;;;;;26.08;37.34;101402.72;3586979;40;20052;-64
2022/08/13 07:41:45;;;;;;;3.60;2.40;;;;;;;26.24;36.14;101400.91;3588104;40;20325;-64
2022/08/13 07:44:23;;;;;;;3.30;2.47;;;;;;;26.42;35.77;101395.94;3589638;40;20097;-64
2022/08/13 07:46:51;;;;;;;4.50;3.30;;;;;;;26.63;36.27;101406.28;3590284;40;20059;-62
2022/08/13 07:49:20;;;;;;;5.90;2.78;;;;;;;26.84;35.04;101408.34;3586291;39;20055;-64
2022/08/13 07:51:47;;;;;;;5.65;2.45;;;;;;;26.98;35.18;101401.97;3588331;39;20052;-64
2022/08/13 07:54:14;;;;;;;5.18;2.50;;;;;;;27.09;34.20;101401.50;3586887;39;20052;-64
2022/08/13 07:56:40;;;;;;;3.33;2.55;;;;;;;27.33;35.01;101405.06;3588222;40;20048;-64
2022/08/13 07:59:15;;;;;;;9.25;2.83;;;;;;;27.41;33.33;101393.91;3592241;39;20050;-64
2022/08/13 08:01:48;;;;;;;4.90;1.95;;;;;;;27.64;33.06;101406.75;3588235;40;20310;-63
2022/08/13 08:04:18;;;;;;;6.97;2.17;;;;;;;27.78;33.12;101400.34;3588215;40;20056;-64
2022/08/13 08:06:46;;;;;;;4.43;2.50;;;;;;;27.52;34.08;101360.28;3587593;40;20048;-64
2022/08/13 08:09:22;;;;;;;2.50;2.20;;;;;;;27.78;31.96;101397.59;3588207;40;20370;-64
2022/08/13 08:14:36;;;;;;;5.88;2.30;;;;;;;28.04;32.37;101410.00;3591318;40;20090;-64
2022/08/13 08:17:06;;;;;;;4.90;2.00;;;;;;;28.16;32.58;101405.66;3591738;40;20047;-64
2022/08/13 08:19:32;;;;;;;2.67;2.17;;;;;;;28.29;32.49;101407.72;3586585;40;20161;-64
2022/08/13 08:22:03;;;;;;;2.22;2.03;;;;;;;28.35;31.74;101409.69;3586929;40;20098;-64
2022/08/13 08:24:32;;;;;;;3.22;1.98;;;;;;;28.58;32.22;101412.31;3590258;39;20692;-64
2022/08/13 08:27:02;;;;;;;3.67;2.10;;;;;;;28.89;32.54;101409.13;3591732;40;20052;-64
2022/08/13 08:29:31;;;;;;;2.20;1.90;;;;;;;28.92;31.30;101373.63;3592033;39;20106;-64
2022/08/13 08:31:57;;;;;;;5.80;4.13;;;;;;;29.31;30.83;101405.41;3588546;40;20048;-64
2022/08/13 08:34:25;;;;;;;3.10;2.30;;;;;;;29.50;29.73;101411.25;3587057;40;20048;-64
2022/08/13 08:36:56;;;;;;;2.05;1.92;;;;;;;29.55;30.75;101414.25;3590200;40;20063;-64
2022/08/13 08:45:02;;;;;;;4.68;1.92;;;;;;;30.07;29.14;101415.56;3588473;40;20054;-64
2022/08/13 08:47:33;;;;;;;3.30;1.90;;;;;;;30.17;29.46;101418.78;3584770;40;20052;-64
2022/08/13 08:49:59;;;;;;;4.70;1.95;;;;;;;30.32;29.11;101417.75;3587279;40;20056;-64
2022/08/13 08:55:14;;;;;;;3.85;2.30;;;;;;;30.49;28.99;101414.38;3589544;40;20405;-64
2022/08/13 08:57:41;;;;;;;7.75;1.75;;;;;;;30.73;29.16;101410.13;3588920;40;20048;-64
2022/08/13 09:00:16;;;;;;;5.18;2.03;;;;;;;30.88;28.99;101407.13;3584351;40;20052;-64
2022/08/13 09:02:46;;;;;;;2.83;1.90;;;;;;;31.02;26.88;101408.00;3584571;40;20054;-64
2022/08/13 09:05:15;;;;;;;5.45;2.03;;;;;;;31.17;27.14;101405.81;3586621;39;20078;-64
2022/08/13 09:07:47;;;;;;;1.95;1.80;;;;;;;31.29;28.89;101407.94;3586828;40;20142;-65
2022/08/13 09:10:17;;;;;;;4.63;2.17;;;;;;;31.50;28.37;101396.56;3586849;40;20134;-64
2022/08/13 09:12:45;;;;;;;3.50;2.15;;;;;;;31.62;28.00;101397.59;3588057;40;20075;-64
2022/08/13 09:15:14;;;;;;;4.32;2.08;;;;;;;31.84;27.59;101389.78;3586651;39;20300;-65
2022/08/13 09:17:41;;;;;;;1.75;1.65;;;;;;;31.90;27.70;101402.81;3585570;40;20105;-64
2022/08/13 09:20:15;;;;;;;2.83;1.65;;;;;;;31.64;27.26;101344.53;3586303;40;20514;-64
2022/08/13 09:22:44;;;;;;;5.80;1.63;;;;;;;32.01;26.42;101379.03;3588638;40;20357;-64
2022/08/13 09:25:15;;;;;;;3.90;1.77;;;;;;;31.99;26.23;101319.13;3585846;39;20088;-64
2022/08/13 09:27:44;;;;;;;5.35;1.80;;;;;;;32.43;24.82;101396.09;3583308;40;20060;-63
2022/08/13 09:30:11;;;;;;;4.80;1.92;;;;;;;32.40;25.50;101388.16;3586289;40;20114;-63
2022/08/13 09:32:37;;;;;;;5.15;2.10;;;;;;;32.46;25.14;101395.63;3588502;40;20071;-63
2022/08/13 09:35:07;;;;;;;6.78;1.85;;;;;;;32.77;24.67;101393.88;3587470;40;20100;-63
2022/08/13 09:37:34;;;;;;;4.07;2.00;;;;;;;32.88;25.59;101389.50;3586787;40;21392;-63
2022/08/13 09:40:12;;;;;;;6.30;1.80;;;;;;;33.13;24.11;101392.28;3588989;40;20059;-65
2022/08/13 09:42:57;;;;;;;2.72;2.00;;;;;;;33.34;23.85;101394.59;3586234;40;20071;-64
2022/08/13 09:45:27;;;;;;;4.45;1.70;;;;;;;33.37;24.01;101391.34;3587610;40;20046;-64
2022/08/13 09:47:54;;;;;;;3.25;1.77;;;;;;;33.36;24.03;101386.84;3584609;40;20421;-64
2022/08/13 09:50:23;;;;;;;2.20;1.27;;;;;;;33.57;23.90;101393.06;3589085;39;20052;-63
2022/08/13 09:52:51;;;;;;;3.00;1.50;;;;;;;33.71;23.17;101392.66;3589144;40;20044;-64
2022/08/13 09:55:17;;;;;;;5.68;1.77;;;;;;;33.78;23.34;101395.38;3589249;40;20052;-64
2022/08/13 09:57:59;;;;;;;4.63;1.70;;;;;;;33.91;23.72;101383.19;3586570;40;20078;-64
2022/08/13 10:00:27;;;;;;;3.55;1.63;;;;;;;34.01;23.19;101382.63;3587157;39;20387;-65
2022/08/13 10:02:59;;;;;;;2.75;1.40;;;;;;;34.20;22.59;101387.06;3592165;39;20155;-63
2022/08/13 10:05:34;;;;;;;1.33;1.30;;;;;;;34.28;21.94;101372.75;3588309;40;20047;-63
2022/08/13 10:08:03;;;;;;;1.27;1.20;;;;;;;34.27;21.61;101371.06;3587580;40;20366;-63
2022/08/13 10:10:30;;;;;;;4.90;1.33;;;;;;;34.32;21.57;101368.41;3585827;39;20075;-63
2022/08/13 10:12:59;;;;;;;4.50;1.30;;;;;;;34.24;21.55;101377.13;3583676;40;20412;-63
2022/08/13 10:15:24;;;;;;;3.30;1.30;;;;;;;34.29;22.11;101357.72;3587872;40;20101;-64
2022/08/13 10:18:02;;;;;;;3.60;1.30;;;;;;;34.34;22.49;101360.63;3591985;40;20088;-63
2022/08/13 10:20:36;;;;;;;2.15;1.20;;;;;;;34.38;21.34;101356.28;3587368;40;21244;-63
2022/08/13 10:23:06;;;;;;;6.47;1.58;;;;;;;34.57;22.22;101359.00;3587148;40;20460;-64
2022/08/13 10:25:33;;;;;;;4.22;1.30;;;;;;;34.69;21.46;101351.47;3588005;39;20063;-64
2022/08/13 10:27:59;;;;;;;2.83;1.38;;;;;;;34.68;20.82;101343.34;3583847;40;20052;-63
2022/08/13 10:30:28;;;;;;;1.98;1.00;;;;;;;34.81;21.08;101357.06;3587378;40;20055;-64
2022/08/13 10:32:55;;;;;;;3.42;1.05;;;;;;;34.74;19.42;101337.66;3587047;40;20525;-65
2022/08/13 10:35:25;;;;;;;1.23;1.13;;;;;;;35.05;18.99;101349.56;3589262;39;20201;-65
2022/08/13 10:37:56;;;;;;;2.50;1.10;;;;;;;35.09;19.58;101356.34;3588393;40;20048;-65
2022/08/13 10:40:23;;;;;;;3.70;1.00;;;;;;;34.98;20.39;101354.38;3584640;39;20049;-65
2022/08/13 10:42:49;;;;;;;2.28;1.08;;;;;;;35.15;19.86;101347.00;3583823;40;20099;-65
2022/08/13 10:45:17;;;;;;;2.25;1.30;;;;;;;35.17;19.51;101347.56;3587257;39;20108;-67
2022/08/13 10:47:49;;;;;;;2.60;1.30;;;;;;;35.25;19.34;101349.16;3584013;40;20133;-65
2022/08/13 10:50:19;;;;;;;1.63;1.30;;;;;;;35.35;19.34;101338.19;3588922;39;20082;-65
2022/08/13 10:52:46;;;;;;;1.67;0.98;;;;;;;35.54;20.38;101342.53;3586675;40;20048;-65
2022/08/13 10:55:14;;;;;;;2.53;1.13;;;;;;;35.75;19.35;101338.19;3588239;39;20459;-65
2022/08/13 10:57:44;;;;;;;2.50;1.00;;;;;;;35.97;19.90;101343.09;3583546;40;20145;-64
2022/08/13 11:00:16;;;;;;;1.67;1.08;;;;;;;36.13;19.45;101321.84;3587218;40;20378;-65
2022/08/13 11:02:43;;;;;;;2.88;1.05;;;;;;;36.02;18.55;101321.66;3587955;40;20379;-65
2022/08/13 11:05:11;;;;;;;0.98;0.90;;;;;;;36.30;19.30;101339.50;3587603;39;20052;-65
2022/08/13 11:07:39;;;;;;;3.05;1.00;;;;;;;36.37;17.84;101344.91;3586452;40;20055;-65
2022/08/13 11:10:08;;;;;;;3.38;1.10;;;;;;;36.26;18.67;101339.16;3585074;40;20125;-64
2022/08/13 11:12:36;;;;;;;1.95;0.98;;;;;;;36.33;18.08;101336.19;3588799;39;20068;-65
2022/08/13 11:15:07;;;;;;;1.40;1.30;;;;;;;36.29;18.65;101331.38;3591005;40;20121;-65
2022/08/13 11:17:34;;;;;;;1.73;1.10;;;;;;;36.17;17.67;101335.06;3587126;40;20061;-65
2022/08/13 11:20:05;;;;;;;1.45;1.13;;;;;;;36.34;20.13;101331.44;3589681;39;20129;-65
2022/08/13 11:22:31;;;;;;;2.05;1.02;;;;;;;36.53;17.96;101327.28;3586852;40;20327;-65
2022/08/13 11:24:59;;;;;;;0.95;0.82;;;;;;;36.72;17.33;101320.31;3590552;40;20051;-66
2022/08/13 11:27:26;;;;;;;0.90;0.90;;;;;;;36.82;17.06;101313.16;3589641;40;20051;-66
2022/08/13 11:29:55;;;;;;;1.95;1.25;;;;;;;36.81;16.64;101317.06;3590796;40;20045;-66
2022/08/13 11:32:21;;;;;;;1.83;1.70;;;;;;;36.75;17.54;101323.72;3587447;40;20161;-66
2022/08/13 11:34:47;;;;;;;1.45;1.00;;;;;;;36.81;17.27;101308.66;3588804;40;20056;-66
2022/08/13 11:37:13;;;;;;;2.70;1.10;;;;;;;36.91;18.15;101309.66;3586406;40;20059;-65
2022/08/13 11:39:39;;;;;;;1.42;1.15;;;;;;;37.02;16.86;101307.88;3585697;40;20281;-65
2022/08/13 11:42:05;;;;;;;1.02;0.93;;;;;;;37.10;18.08;101301.81;3586723;39;20531;-65
2022/08/13 11:44:31;;;;;;;1.40;1.15;;;;;;;37.16;17.87;101320.38;3584833;40;20163;-65
2022/08/13 11:46:56;;;;;;;1.80;1.48;;;;;;;37.10;17.61;101304.59;3593089;39;20052;-65
2022/08/13 11:49:22;;;;;;;1.00;1.00;;;;;;;37.12;18.87;101313.63;3588771;40;20067;-65
2022/08/13 11:51:48;;;;;;;3.45;1.00;;;;;;;36.91;17.95;101306.00;3589717;40;20056;-65
2022/08/13 11:54:15;;;;;;;2.08;1.10;;;;;;;37.04;17.84;101311.25;3587946;39;20045;-66
2022/08/13 11:56:41;;;;;;;1.98;1.08;;;;;;;37.30;18.13;101308.78;3586047;40;20052;-65
2022/08/13 11:59:06;;;;;;;2.00;1.33;;;;;;;37.41;17.57;101313.41;3588585;39;20063;-65